createdAt,value
2018-07-28T00:01:41.371Z,39.30
2018-07-28T00:04:10.974Z,39.65
2018-07-28T00:06:41.118Z,40.35
2018-07-28T00:09:11.799Z,41.02
2018-07-28T00:11:41.246Z,41.86
2018-07-28T00:14:11.454Z,41.18
2018-07-28T00:16:41.091Z,40.09
2018-07-28T00:19:11.403Z,39.78
2018-07-28T00:21:41.843Z,40.51
2018-07-28T00:24:11.267Z,41.27
2018-07-28T00:26:41.204Z,41.52
2018-07-28T00:29:11.612Z,42.08
2018-07-28T00:31:40.936Z,43.50
2018-07-28T00:34:10.549Z,43.47
2018-07-28T00:36:41.028Z,43.78
2018-07-28T00:39:13.241Z,44.76
2018-07-28T00:41:42.826Z,43.69
2018-07-28T00:44:13.400Z,42.37
2018-07-28T00:46:44.663Z,41.69
2018-07-28T00:49:14.132Z,41.43
2018-07-28T00:51:43.543Z,41.96
2018-07-28T00:54:12.906Z,41.82
2018-07-28T00:56:42.566Z,41.96
2018-07-28T00:59:11.917Z,41.56
2018-07-28T01:01:42.135Z,42.69
2018-07-28T01:04:12.283Z,44.20
2018-07-28T01:06:41.962Z,44.75
2018-07-28T01:09:12.352Z,44.85
2018-07-28T01:11:41.691Z,45.23
2018-07-28T01:14:11.036Z,45.60
2018-07-28T01:16:41.223Z,46.43
2018-07-28T01:19:11.370Z,46.44
2018-07-28T01:21:41.161Z,46.18
2018-07-28T01:24:11.611Z,46.24
2018-07-28T01:26:41.121Z,46.02
2018-07-28T01:29:17.659Z,45.93
2018-07-28T01:31:49.265Z,45.98
2018-07-28T01:34:19.135Z,46.22
2018-07-28T01:36:48.435Z,46.05
2018-07-28T01:39:18.939Z,45.73
2018-07-28T01:41:48.976Z,46.20
2018-07-28T01:44:18.737Z,46.61
2018-07-28T01:46:48.688Z,47.45
2018-07-28T01:49:18.097Z,48.49
2018-07-28T01:51:47.689Z,49.14
2018-07-28T01:54:17.651Z,49.30
2018-07-28T01:56:46.999Z,49.19
2018-07-28T01:59:16.671Z,48.58
2018-07-28T02:01:46.341Z,48.38
2018-07-28T02:04:15.667Z,48.25
2018-07-28T02:06:45.331Z,48.35
2018-07-28T02:09:15.505Z,47.42
2018-07-28T02:11:45.121Z,47.41
2018-07-28T02:14:14.484Z,47.56
2018-07-28T02:16:44.277Z,47.69
2018-07-28T02:19:13.987Z,47.60
2018-07-28T02:21:43.502Z,47.22
2018-07-28T02:24:12.874Z,47.12
2018-07-28T02:26:42.172Z,47.22
2018-07-28T02:29:11.807Z,47.14
2018-07-28T02:31:42.109Z,47.78
2018-07-28T02:34:11.487Z,49.09
2018-07-28T02:36:41.039Z,49.00
2018-07-28T02:39:11.763Z,49.02
2018-07-28T02:41:42.287Z,49.13
2018-07-28T02:44:11.646Z,49.70
2018-07-28T02:46:40.994Z,49.52
2018-07-28T02:49:10.350Z,49.51
2018-07-28T02:51:40.115Z,48.65
2018-07-28T02:54:09.472Z,48.97
2018-07-28T02:56:38.816Z,49.43
2018-07-28T02:59:10.213Z,49.76
2018-07-28T03:01:39.591Z,50.07
2018-07-28T03:04:10.388Z,50.96
2018-07-28T03:06:39.700Z,50.86
2018-07-28T03:09:11.263Z,51.30
2018-07-28T03:11:41.530Z,50.41
2018-07-28T03:14:11.401Z,51.12
2018-07-28T03:16:40.723Z,51.45
2018-07-28T03:19:10.595Z,51.92
2018-07-28T03:21:40.239Z,51.50
2018-07-28T03:24:10.273Z,51.93
2018-07-28T03:26:39.847Z,52.07
2018-07-28T03:29:09.548Z,53.02
2018-07-28T03:31:38.901Z,53.12
2018-07-28T03:34:08.479Z,53.39
2018-07-28T03:36:38.168Z,52.41
2018-07-28T03:39:09.891Z,52.14
2018-07-28T03:41:39.742Z,51.91
2018-07-28T03:44:09.517Z,52.02
2018-07-28T03:46:38.908Z,52.24
2018-07-28T03:49:08.522Z,52.05
2018-07-28T03:51:37.848Z,52.12
2018-07-28T03:54:07.622Z,52.08
2018-07-28T03:56:36.996Z,52.25
2018-07-28T03:59:06.609Z,52.15
2018-07-28T04:01:36.010Z,52.25
2018-07-28T04:04:06.185Z,52.07
2018-07-28T04:06:36.014Z,52.09
2018-07-28T04:09:07.792Z,52.34
2018-07-28T04:11:37.480Z,51.82
2018-07-28T04:14:06.853Z,52.74
2018-07-28T04:16:36.206Z,52.05
2018-07-28T04:19:05.774Z,52.84
2018-07-28T04:21:35.612Z,52.87
2018-07-28T04:24:05.262Z,52.92
2018-07-28T04:26:35.331Z,53.59
2018-07-28T04:29:04.892Z,53.28
2018-07-28T04:31:34.204Z,52.81
2018-07-28T04:34:04.354Z,53.22
2018-07-28T04:36:33.939Z,52.68
2018-07-28T04:39:03.645Z,52.36
2018-07-28T04:41:34.163Z,52.59
2018-07-28T04:44:04.423Z,52.27
2018-07-28T04:46:33.654Z,51.79
2018-07-28T04:49:02.996Z,52.48
2018-07-28T04:51:33.946Z,52.33
2018-07-28T04:54:03.724Z,52.10
2018-07-28T04:56:33.068Z,51.22
2018-07-28T04:59:02.406Z,51.47
2018-07-28T05:01:32.525Z,50.83
2018-07-28T05:04:01.826Z,50.63
2018-07-28T05:06:31.406Z,50.68
2018-07-28T05:09:00.727Z,50.70
2018-07-28T05:11:30.200Z,51.99
2018-07-28T05:13:59.512Z,51.76
2018-07-28T05:16:28.847Z,52.68
2018-07-28T05:18:58.181Z,52.21
2018-07-28T05:21:28.540Z,52.43
2018-07-28T05:23:57.920Z,52.70
2018-07-28T05:26:27.475Z,52.75
2018-07-28T05:28:56.847Z,51.63
2018-07-28T05:31:26.218Z,51.33
2018-07-28T05:33:55.755Z,51.49
2018-07-28T05:36:25.471Z,51.50
2018-07-28T05:38:54.831Z,51.96
2018-07-28T05:41:24.553Z,51.80
2018-07-28T05:43:53.844Z,53.24
2018-07-28T05:46:24.861Z,52.48
2018-07-28T05:48:54.195Z,52.78
2018-07-28T05:51:23.947Z,52.66
2018-07-28T05:53:53.261Z,51.86
2018-07-28T05:56:23.630Z,51.33
2018-07-28T05:58:53.068Z,49.60
2018-07-28T06:01:22.980Z,48.53
2018-07-28T06:03:52.503Z,49.43
2018-07-28T06:06:21.923Z,48.74
2018-07-28T06:08:51.385Z,47.87
2018-07-28T06:11:20.753Z,46.80
2018-07-28T06:13:50.671Z,46.94
2018-07-28T06:16:20.064Z,45.68
2018-07-28T06:18:50.656Z,46.84
2018-07-28T06:21:20.252Z,46.28
2018-07-28T06:23:49.661Z,44.99
2018-07-28T06:26:18.999Z,44.17
2018-07-28T06:28:48.663Z,43.95
2018-07-28T06:31:18.226Z,44.40
2018-07-28T06:33:47.544Z,43.59
2018-07-28T06:36:17.763Z,43.37
2018-07-28T06:38:47.067Z,42.80
2018-07-28T06:41:17.310Z,43.57
2018-07-28T06:43:47.355Z,43.27
2018-07-28T06:46:16.686Z,43.17
2018-07-28T06:48:46.344Z,43.36
2018-07-28T06:51:16.684Z,42.99
2018-07-28T06:53:46.138Z,43.13
2018-07-28T06:56:15.415Z,42.43
2018-07-28T06:58:45.566Z,42.87
2018-07-28T07:01:14.898Z,42.28
2018-07-28T07:03:44.399Z,42.24
2018-07-28T07:06:13.974Z,42.21
2018-07-28T07:08:43.363Z,42.44
2018-07-28T07:11:12.715Z,41.63
2018-07-28T07:13:42.110Z,41.60
2018-07-28T07:16:11.466Z,41.22
2018-07-28T07:18:41.636Z,40.81
2018-07-28T07:21:10.965Z,40.83
2018-07-28T07:23:40.514Z,40.23
2018-07-28T07:26:09.855Z,39.96
2018-07-28T07:28:39.320Z,39.92
2018-07-28T07:31:09.659Z,40.44
2018-07-28T07:33:39.386Z,40.16
2018-07-28T07:36:09.850Z,40.40
2018-07-28T07:38:39.097Z,40.46
2018-07-28T07:41:08.534Z,40.77
2018-07-28T07:43:38.731Z,40.53
2018-07-28T07:46:08.317Z,40.71
2018-07-28T07:48:38.491Z,41.03
2018-07-28T07:51:08.332Z,40.47
2018-07-28T07:53:37.892Z,40.19
2018-07-28T07:56:07.547Z,40.57
2018-07-28T07:58:36.939Z,40.36
2018-07-28T08:01:06.787Z,41.24
2018-07-28T08:03:36.104Z,41.54
2018-07-28T08:06:05.772Z,42.33
2018-07-28T08:08:35.424Z,42.90
2018-07-28T08:11:05.167Z,43.08
2018-07-28T08:13:34.456Z,43.39
2018-07-28T08:16:04.171Z,43.92
2018-07-28T08:18:33.566Z,44.64
2018-07-28T08:21:02.934Z,45.01
2018-07-28T08:23:32.344Z,45.03
2018-07-28T08:26:02.012Z,44.90
2018-07-28T08:28:31.328Z,45.00
2018-07-28T08:31:00.875Z,44.71
2018-07-28T08:33:31.312Z,44.69
2018-07-28T08:36:00.574Z,44.65
2018-07-28T08:38:30.112Z,44.29
2018-07-28T08:40:59.479Z,44.45
2018-07-28T08:43:29.450Z,44.22
2018-07-28T08:45:58.783Z,44.30
2018-07-28T08:48:28.077Z,44.04
2018-07-28T08:50:57.886Z,44.10
2018-07-28T08:53:27.225Z,43.60
2018-07-28T08:55:57.849Z,42.49
2018-07-28T08:58:27.503Z,41.02
2018-07-28T09:00:56.851Z,40.84
2018-07-28T09:03:26.203Z,40.72
2018-07-28T09:05:55.944Z,41.63
2018-07-28T09:08:25.264Z,40.47
2018-07-28T09:10:55.115Z,40.84
2018-07-28T09:13:24.458Z,40.86
2018-07-28T09:15:54.216Z,41.29
2018-07-28T09:18:24.252Z,41.79
2018-07-28T09:20:53.583Z,42.08
2018-07-28T09:23:22.971Z,42.25
2018-07-28T09:25:52.228Z,42.42
2018-07-28T09:28:21.934Z,42.52
2018-07-28T09:30:51.275Z,42.22
2018-07-28T09:33:21.122Z,42.36
2018-07-28T09:35:50.716Z,42.51
2018-07-28T09:38:21.721Z,43.29
2018-07-28T09:40:51.055Z,43.53
2018-07-28T09:43:20.504Z,44.22
2018-07-28T09:45:50.058Z,44.26
2018-07-28T09:48:19.403Z,43.94
2018-07-28T09:50:48.716Z,44.63
2018-07-28T09:53:18.476Z,43.33
2018-07-28T09:55:48.108Z,44.69
2018-07-28T09:58:19.378Z,45.08
2018-07-28T10:00:54.141Z,45.09
2018-07-28T10:03:24.161Z,45.76
2018-07-28T10:05:54.202Z,45.10
2018-07-28T10:08:25.135Z,44.50
2018-07-28T10:11:03.385Z,45.93
2018-07-28T10:13:34.647Z,46.62
2018-07-28T10:16:10.199Z,45.80
2018-07-28T10:18:40.836Z,45.67
2018-07-28T10:21:10.187Z,45.35
2018-07-28T10:23:41.937Z,45.00
2018-07-28T10:26:12.828Z,44.64
2018-07-28T10:28:44.368Z,44.20
2018-07-28T10:31:14.108Z,44.03
2018-07-28T10:33:44.754Z,43.40
2018-07-28T10:36:14.343Z,44.30
2018-07-28T10:38:45.433Z,43.50
2018-07-28T10:41:15.675Z,43.37
2018-07-28T10:43:45.156Z,42.55
2018-07-28T10:46:19.089Z,41.85
2018-07-28T10:48:51.674Z,41.71
2018-07-28T10:51:21.584Z,41.68
2018-07-28T10:53:51.290Z,40.27
2018-07-28T10:56:20.739Z,39.96
2018-07-28T10:58:50.808Z,38.76
2018-07-28T11:01:20.706Z,38.40
2018-07-28T11:03:50.252Z,38.53
2018-07-28T11:06:20.454Z,37.60
2018-07-28T11:08:50.240Z,36.97
2018-07-28T11:11:20.692Z,35.16
2018-07-28T11:13:51.163Z,35.79
2018-07-28T11:16:21.156Z,35.16
2018-07-28T11:18:50.788Z,35.24
2018-07-28T11:21:20.116Z,35.04
2018-07-28T11:23:59.398Z,34.07
2018-07-28T11:26:29.155Z,32.45
2018-07-28T11:28:59.235Z,32.82
2018-07-28T11:31:39.739Z,33.12
2018-07-28T11:34:20.243Z,34.37
2018-07-28T11:37:00.631Z,35.31
2018-07-28T11:39:41.952Z,35.60
2018-07-28T11:42:22.851Z,34.80
2018-07-28T11:45:06.606Z,35.46
2018-07-28T11:47:37.268Z,34.72
2018-07-28T11:50:06.779Z,35.56
2018-07-28T11:52:36.097Z,35.28
2018-07-28T11:55:05.763Z,33.05
2018-07-28T11:57:35.112Z,33.13
2018-07-28T12:00:05.399Z,32.32
2018-07-28T12:02:35.420Z,33.66
2018-07-28T12:05:05.408Z,32.27
2018-07-28T12:07:35.317Z,32.23
2018-07-28T12:10:06.736Z,32.65
2018-07-28T12:12:36.121Z,33.41
2018-07-28T12:15:06.196Z,32.65
2018-07-28T12:17:35.520Z,31.15
2018-07-28T12:20:07.282Z,30.94
2018-07-28T12:22:37.003Z,30.45
2018-07-28T12:25:06.824Z,31.54
2018-07-28T12:27:36.490Z,31.04
2018-07-28T12:30:09.403Z,32.35
2018-07-28T12:32:38.943Z,32.22
2018-07-28T12:35:08.556Z,32.38
2018-07-28T12:37:38.297Z,31.76
2018-07-28T12:40:07.662Z,30.01
2018-07-28T12:42:36.976Z,30.15
2018-07-28T12:45:06.395Z,29.13
2018-07-28T12:47:36.031Z,28.49
2018-07-28T12:50:05.595Z,29.30
2018-07-28T12:52:35.711Z,29.70
2018-07-28T12:55:05.051Z,29.41
2018-07-28T12:57:34.406Z,29.67
2018-07-28T13:00:04.285Z,30.71
2018-07-28T13:02:33.945Z,31.08
2018-07-28T13:05:03.296Z,32.26
2018-07-28T13:07:33.082Z,32.62
2018-07-28T13:10:03.271Z,33.34
2018-07-28T13:12:33.363Z,34.29
2018-07-28T13:15:03.025Z,40.35
2018-07-28T13:17:32.775Z,43.91
2018-07-28T13:20:02.345Z,42.97
2018-07-28T13:22:31.968Z,46.88
2018-07-28T13:25:01.672Z,49.87
2018-07-28T13:27:31.685Z,46.00
2018-07-28T13:30:01.069Z,49.80
2018-07-28T13:32:30.533Z,53.32
2018-07-28T13:34:59.829Z,73.11
2018-07-28T13:37:30.465Z,68.67
2018-07-28T13:40:00.245Z,66.63
2018-07-28T13:42:31.767Z,67.97
2018-07-28T13:45:01.858Z,69.90
2018-07-28T13:47:31.268Z,70.87
2018-07-28T13:50:01.304Z,72.42
2018-07-28T13:52:32.762Z,72.37
2018-07-28T13:55:02.995Z,73.35
2018-07-28T13:57:33.464Z,74.31
2018-07-28T14:00:02.808Z,74.24
2018-07-28T14:02:33.547Z,72.33
2018-07-28T14:05:02.832Z,69.43
2018-07-28T14:07:32.673Z,69.41
2018-07-28T14:10:02.765Z,69.40
2018-07-28T14:12:33.404Z,66.38
2018-07-28T14:15:02.828Z,65.55
2018-07-28T14:17:32.073Z,61.98
2018-07-28T14:20:01.815Z,61.38
2018-07-28T14:22:31.253Z,56.45
2018-07-28T14:25:01.664Z,56.00
2018-07-28T14:27:31.995Z,49.41
2018-07-28T14:30:01.309Z,50.47
2018-07-28T14:32:30.705Z,48.16
2018-07-28T14:35:00.569Z,47.41
2018-07-28T14:37:29.902Z,46.47
2018-07-28T14:39:59.590Z,43.18
2018-07-28T14:42:30.601Z,44.75
2018-07-28T14:45:01.015Z,45.03
2018-07-28T14:47:30.388Z,49.17
2018-07-28T14:50:00.610Z,44.36
2018-07-28T14:52:29.971Z,46.99
2018-07-28T14:55:00.198Z,46.42
2018-07-28T14:57:29.579Z,47.85
2018-07-28T14:59:58.917Z,48.35
2018-07-28T15:02:28.628Z,50.04
2018-07-28T15:04:58.145Z,49.78
2018-07-28T15:07:27.540Z,50.03
2018-07-28T15:09:56.865Z,50.97
2018-07-28T15:12:27.197Z,52.32
2018-07-28T15:14:56.518Z,51.54
2018-07-28T15:17:26.340Z,52.22
2018-07-28T15:19:55.663Z,51.73
2018-07-28T15:22:25.049Z,54.12
2018-07-28T15:24:54.361Z,55.82
2018-07-28T15:27:24.100Z,54.53
2018-07-28T15:29:53.429Z,56.29
2018-07-28T15:32:23.364Z,54.87
2018-07-28T15:34:53.086Z,53.87
2018-07-28T15:37:23.446Z,55.21
2018-07-28T15:39:52.857Z,56.53
2018-07-28T15:42:22.815Z,56.70
2018-07-28T15:44:53.009Z,57.99
2018-07-28T15:47:22.572Z,57.88
2018-07-28T15:49:52.443Z,57.87
2018-07-28T15:52:22.301Z,57.81
2018-07-28T15:54:51.600Z,57.82
2018-07-28T15:57:21.857Z,55.89
2018-07-28T15:59:51.398Z,54.78
2018-07-28T16:02:21.119Z,55.53
2018-07-28T16:04:50.666Z,55.99
2018-07-28T16:07:20.001Z,50.08
2018-07-28T16:09:49.311Z,48.46
2018-07-28T16:12:19.076Z,48.47
2018-07-28T16:14:49.508Z,45.83
2018-07-28T16:17:18.799Z,44.00
2018-07-28T16:19:49.392Z,45.38
2018-07-28T16:22:19.615Z,44.90
2018-07-28T16:24:49.253Z,44.35
2018-07-28T16:27:19.008Z,43.73
2018-07-28T16:29:48.322Z,44.84
2018-07-28T16:32:17.927Z,46.09
2018-07-28T16:34:47.267Z,45.23
2018-07-28T16:37:16.690Z,44.66
2018-07-28T16:39:45.987Z,43.45
2018-07-28T16:42:15.365Z,44.07
2018-07-28T16:44:44.687Z,44.36
2018-07-28T16:47:14.748Z,44.64
2018-07-28T16:49:44.287Z,44.08
2018-07-28T16:52:14.039Z,44.08
2018-07-28T16:54:43.336Z,43.73
2018-07-28T16:57:12.692Z,42.82
2018-07-28T16:59:42.001Z,43.20
2018-07-28T17:02:11.383Z,43.74
2018-07-28T17:04:41.057Z,42.25
2018-07-28T17:07:10.400Z,42.63
2018-07-28T17:09:40.373Z,42.67
2018-07-28T17:12:10.006Z,42.79
2018-07-28T17:14:39.974Z,43.19
2018-07-28T17:17:09.276Z,43.53
2018-07-28T17:19:38.640Z,43.63
2018-07-28T17:22:08.509Z,42.22
2018-07-28T17:24:38.307Z,42.16
2018-07-28T17:27:08.433Z,42.22
2018-07-28T17:29:38.222Z,43.09
2018-07-28T17:32:07.780Z,43.84
2018-07-28T17:34:37.133Z,42.88
2018-07-28T17:37:06.947Z,43.30
2018-07-28T17:39:36.300Z,43.45
2018-07-28T17:42:05.769Z,43.72
2018-07-28T17:44:35.436Z,44.64
2018-07-28T17:47:04.978Z,45.16
2018-07-28T17:49:35.072Z,45.24
2018-07-28T17:52:04.456Z,45.41
2018-07-28T17:54:34.380Z,45.93
2018-07-28T17:57:04.625Z,45.70
2018-07-28T17:59:34.018Z,45.77
2018-07-28T18:02:03.345Z,45.68
2018-07-28T18:04:33.573Z,46.40
2018-07-28T18:07:03.343Z,46.42
2018-07-28T18:09:32.898Z,47.21
2018-07-28T18:12:02.816Z,47.31
2018-07-28T18:14:33.249Z,48.05
2018-07-28T18:17:03.289Z,48.46
2018-07-28T18:19:32.647Z,48.86
2018-07-28T18:22:02.141Z,48.96
2018-07-28T18:24:31.689Z,48.75
2018-07-28T18:27:01.547Z,49.59
2018-07-28T18:29:31.252Z,49.57
2018-07-28T18:32:00.595Z,48.88
2018-07-28T18:34:30.355Z,49.44
2018-07-28T18:36:59.656Z,49.62
2018-07-28T18:39:29.520Z,49.98
2018-07-28T18:41:59.783Z,51.13
2018-07-28T18:44:29.103Z,51.57
2018-07-28T18:46:58.395Z,51.56
2018-07-28T18:49:27.729Z,51.38
2018-07-28T18:51:57.427Z,51.30
2018-07-28T18:54:27.164Z,51.54
2018-07-28T18:56:56.480Z,51.85
2018-07-28T18:59:26.063Z,53.32
2018-07-28T19:01:55.724Z,54.51
2018-07-28T19:04:25.059Z,54.49
2018-07-28T19:06:54.636Z,54.43
2018-07-28T19:09:29.271Z,55.21
2018-07-28T19:11:59.202Z,55.89
2018-07-28T19:14:34.235Z,56.04
2018-07-28T19:17:03.979Z,56.16
2018-07-28T19:19:33.733Z,56.98
2018-07-28T19:22:03.116Z,57.39
2018-07-28T19:24:32.442Z,58.47
2018-07-28T19:27:01.744Z,57.22
2018-07-28T19:29:37.291Z,57.84
2018-07-28T19:32:07.748Z,56.99
2018-07-28T19:34:37.083Z,57.65
2018-07-28T19:37:11.957Z,57.94
2018-07-28T19:39:41.892Z,58.03
2018-07-28T19:42:16.777Z,59.70
2018-07-28T19:44:46.324Z,58.30
2018-07-28T19:47:15.626Z,56.31
2018-07-28T19:49:45.823Z,56.46
2018-07-28T19:52:15.150Z,56.09
2018-07-28T19:54:44.470Z,56.04
2018-07-28T19:57:14.294Z,55.55
2018-07-28T19:59:43.638Z,56.33
2018-07-28T20:02:12.997Z,56.83
2018-07-28T20:04:43.164Z,55.49
2018-07-28T20:07:12.939Z,55.64
2018-07-28T20:09:43.104Z,55.76
2018-07-28T20:12:12.819Z,56.12
2018-07-28T20:14:42.148Z,56.48
2018-07-28T20:17:11.468Z,57.19
2018-07-28T20:19:41.114Z,56.03
2018-07-28T20:22:10.789Z,56.47
2018-07-28T20:24:40.473Z,56.86
2018-07-28T20:27:09.776Z,56.69
2018-07-28T20:29:39.095Z,55.72
2018-07-28T20:32:10.191Z,55.93
2018-07-28T20:34:39.496Z,55.53
2018-07-28T20:37:08.771Z,56.12
2018-07-28T20:39:38.415Z,54.66
2018-07-28T20:42:07.731Z,54.92
2018-07-28T20:44:37.354Z,55.02
2018-07-28T20:47:08.514Z,54.92
2018-07-28T20:49:38.300Z,54.74
2018-07-28T20:52:07.838Z,55.81
2018-07-28T20:54:37.726Z,56.86
2018-07-28T20:57:07.462Z,56.23
2018-07-28T20:59:37.021Z,55.68
2018-07-28T21:02:06.984Z,55.99
2018-07-28T21:04:36.345Z,56.11
2018-07-28T21:07:05.754Z,55.42
2018-07-28T21:09:35.121Z,55.37
2018-07-28T21:12:04.446Z,54.94
2018-07-28T21:14:34.311Z,56.53
2018-07-28T21:17:04.312Z,57.57
2018-07-28T21:19:34.222Z,57.50
2018-07-28T21:22:03.934Z,57.60
2018-07-28T21:24:33.253Z,58.60
2018-07-28T21:27:02.856Z,58.18
2018-07-28T21:29:32.524Z,59.50
2018-07-28T21:32:01.838Z,59.94
2018-07-28T21:34:31.510Z,59.84
2018-07-28T21:37:00.787Z,61.43
2018-07-28T21:39:30.107Z,60.56
2018-07-28T21:41:59.454Z,60.16
2018-07-28T21:44:28.752Z,59.67
2018-07-28T21:46:58.445Z,59.32
2018-07-28T21:49:28.088Z,58.72
2018-07-28T21:51:57.397Z,62.15
2018-07-28T21:54:26.704Z,63.00
2018-07-28T21:56:56.978Z,61.68
2018-07-28T21:59:26.670Z,62.78
2018-07-28T22:01:56.015Z,63.17
2018-07-28T22:04:35.778Z,63.29
2018-07-28T22:07:05.107Z,62.91
2018-07-28T22:09:34.384Z,62.15
2018-07-28T22:12:03.728Z,61.34
2018-07-28T22:14:34.750Z,61.42
2018-07-28T22:17:05.557Z,61.86
2018-07-28T22:19:34.864Z,62.71
2018-07-28T22:22:04.269Z,63.12
2018-07-28T22:24:33.552Z,63.61
2018-07-28T22:27:02.920Z,63.61
2018-07-28T22:29:32.445Z,64.77
2018-07-28T22:32:01.780Z,64.82
2018-07-28T22:34:31.430Z,63.95
2018-07-28T22:37:00.761Z,63.29
2018-07-28T22:39:30.060Z,63.14
2018-07-28T22:41:59.686Z,62.33
2018-07-28T22:44:29.312Z,64.19
2018-07-28T22:46:58.996Z,63.59
2018-07-28T22:49:28.279Z,63.77
2018-07-28T22:51:57.914Z,63.58
2018-07-28T22:54:27.225Z,63.40
2018-07-28T22:56:58.055Z,62.89
2018-07-28T22:59:28.248Z,62.46
2018-07-28T23:01:57.662Z,62.15
2018-07-28T23:04:26.955Z,60.76
2018-07-28T23:07:00.959Z,61.28
2018-07-28T23:09:30.506Z,61.41
2018-07-28T23:12:00.069Z,62.12
2018-07-28T23:14:29.387Z,62.94
2018-07-28T23:16:58.731Z,64.16
2018-07-28T23:19:28.072Z,64.30
2018-07-28T23:21:57.390Z,65.65
2018-07-28T23:24:26.712Z,65.68
2018-07-28T23:26:56.425Z,65.78
2018-07-28T23:29:26.202Z,66.56
2018-07-28T23:31:55.550Z,67.04
2018-07-28T23:34:27.925Z,66.90
2018-07-28T23:36:57.769Z,66.17
2018-07-28T23:39:27.076Z,66.63
2018-07-28T23:41:56.451Z,66.85
2018-07-28T23:44:25.764Z,66.40
2018-07-28T23:46:55.152Z,66.73
2018-07-28T23:49:24.577Z,66.80
2018-07-28T23:51:55.113Z,66.42
2018-07-28T23:54:24.876Z,67.09
2018-07-28T23:56:54.255Z,66.92
2018-07-28T23:59:23.884Z,66.84
